sensor_id;sensor_type;location;lat;lon;timestamp;P1;durP1;ratioP1;P2;durP2;ratioP2
24585;SDS011;12743;52.262;6.172;2023-06-22T00:01:46;11.18;;;6.40;;
24585;SDS011;12743;52.262;6.172;2023-06-22T00:04:13;10.43;;;6.57;;
24585;SDS011;12743;52.262;6.172;2023-06-22T00:06:40;10.00;;;6.38;;
24585;SDS011;12743;52.262;6.172;2023-06-22T00:09:06;11.13;;;6.67;;
24585;SDS011;12743;52.262;6.172;2023-06-22T00:11:33;12.13;;;6.80;;
24585;SDS011;12743;52.262;6.172;2023-06-22T00:14:02;11.60;;;6.90;;
24585;SDS011;12743;52.262;6.172;2023-06-22T00:16:32;12.80;;;7.10;;
24585;SDS011;12743;52.262;6.172;2023-06-22T00:18:59;10.75;;;6.65;;
24585;SDS011;12743;52.262;6.172;2023-06-22T00:21:29;12.47;;;7.30;;
24585;SDS011;12743;52.262;6.172;2023-06-22T00:23:57;12.50;;;7.70;;
24585;SDS011;12743;52.262;6.172;2023-06-22T00:26:24;10.35;;;6.93;;
24585;SDS011;12743;52.262;6.172;2023-06-22T00:28:51;11.40;;;7.20;;
24585;SDS011;12743;52.262;6.172;2023-06-22T00:31:22;11.50;;;7.55;;
24585;SDS011;12743;52.262;6.172;2023-06-22T00:33:49;10.33;;;7.20;;
24585;SDS011;12743;52.262;6.172;2023-06-22T00:36:17;11.13;;;7.05;;
24585;SDS011;12743;52.262;6.172;2023-06-22T00:38:44;12.23;;;7.93;;
24585;SDS011;12743;52.262;6.172;2023-06-22T00:41:10;13.43;;;7.63;;
24585;SDS011;12743;52.262;6.172;2023-06-22T00:43:37;11.32;;;7.70;;
24585;SDS011;12743;52.262;6.172;2023-06-22T00:46:07;10.93;;;7.73;;
24585;SDS011;12743;52.262;6.172;2023-06-22T00:48:35;13.50;;;7.53;;
24585;SDS011;12743;52.262;6.172;2023-06-22T00:51:03;11.88;;;7.70;;
24585;SDS011;12743;52.262;6.172;2023-06-22T00:53:30;14.25;;;7.70;;
24585;SDS011;12743;52.262;6.172;2023-06-22T00:56:01;13.85;;;8.40;;
24585;SDS011;12743;52.262;6.172;2023-06-22T00:58:29;11.50;;;7.33;;
24585;SDS011;12743;52.262;6.172;2023-06-22T01:00:56;12.20;;;7.72;;
24585;SDS011;12743;52.262;6.172;2023-06-22T01:03:26;11.20;;;7.10;;
24585;SDS011;12743;52.262;6.172;2023-06-22T01:05:56;10.32;;;7.15;;
24585;SDS011;12743;52.262;6.172;2023-06-22T01:11:06;11.97;;;7.87;;
24585;SDS011;12743;52.262;6.172;2023-06-22T01:16:55;12.48;;;7.70;;
24585;SDS011;12743;52.262;6.172;2023-06-22T01:19:43;11.82;;;7.93;;
24585;SDS011;12743;52.262;6.172;2023-06-22T01:22:17;13.00;;;8.20;;
24585;SDS011;12743;52.262;6.172;2023-06-22T01:30:18;13.25;;;8.57;;
24585;SDS011;12743;52.262;6.172;2023-06-22T01:32:45;12.82;;;8.23;;
24585;SDS011;12743;52.262;6.172;2023-06-22T01:35:13;11.10;;;7.78;;
24585;SDS011;12743;52.262;6.172;2023-06-22T01:37:41;12.93;;;7.93;;
24585;SDS011;12743;52.262;6.172;2023-06-22T01:40:10;12.00;;;7.88;;
24585;SDS011;12743;52.262;6.172;2023-06-22T01:42:38;13.68;;;8.88;;
24585;SDS011;12743;52.262;6.172;2023-06-22T01:45:06;12.05;;;8.70;;
24585;SDS011;12743;52.262;6.172;2023-06-22T01:47:36;14.95;;;8.35;;
24585;SDS011;12743;52.262;6.172;2023-06-22T01:50:04;15.10;;;9.20;;
24585;SDS011;12743;52.262;6.172;2023-06-22T01:52:35;12.55;;;8.05;;
24585;SDS011;12743;52.262;6.172;2023-06-22T01:55:02;15.48;;;10.00;;
24585;SDS011;12743;52.262;6.172;2023-06-22T01:57:29;14.60;;;9.48;;
24585;SDS011;12743;52.262;6.172;2023-06-22T02:00:04;15.13;;;10.55;;
24585;SDS011;12743;52.262;6.172;2023-06-22T02:02:43;14.77;;;9.90;;
24585;SDS011;12743;52.262;6.172;2023-06-22T02:05:36;13.23;;;9.50;;
24585;SDS011;12743;52.262;6.172;2023-06-22T02:11:15;16.73;;;11.00;;
24585;SDS011;12743;52.262;6.172;2023-06-22T02:13:45;15.40;;;10.55;;
24585;SDS011;12743;52.262;6.172;2023-06-22T02:16:12;15.57;;;10.63;;
24585;SDS011;12743;52.262;6.172;2023-06-22T02:18:50;16.48;;;11.63;;
24585;SDS011;12743;52.262;6.172;2023-06-22T02:21:18;16.30;;;11.13;;
24585;SDS011;12743;52.262;6.172;2023-06-22T02:23:49;19.00;;;11.68;;
24585;SDS011;12743;52.262;6.172;2023-06-22T02:26:16;16.55;;;12.65;;
24585;SDS011;12743;52.262;6.172;2023-06-22T02:28:44;18.53;;;12.80;;
24585;SDS011;12743;52.262;6.172;2023-06-22T02:31:12;18.23;;;13.13;;
24585;SDS011;12743;52.262;6.172;2023-06-22T02:33:39;19.92;;;13.38;;
24585;SDS011;12743;52.262;6.172;2023-06-22T02:36:05;21.42;;;14.02;;
24585;SDS011;12743;52.262;6.172;2023-06-22T02:38:35;19.83;;;14.65;;
24585;SDS011;12743;52.262;6.172;2023-06-22T02:41:02;23.10;;;14.87;;
24585;SDS011;12743;52.262;6.172;2023-06-22T02:43:32;21.40;;;15.63;;
24585;SDS011;12743;52.262;6.172;2023-06-22T02:45:59;24.55;;;17.05;;
24585;SDS011;12743;52.262;6.172;2023-06-22T02:48:26;25.52;;;18.08;;
24585;SDS011;12743;52.262;6.172;2023-06-22T02:50:53;23.63;;;16.92;;
24585;SDS011;12743;52.262;6.172;2023-06-22T02:53:21;24.43;;;17.73;;
24585;SDS011;12743;52.262;6.172;2023-06-22T02:55:47;27.30;;;17.33;;
24585;SDS011;12743;52.262;6.172;2023-06-22T02:58:15;27.08;;;17.60;;
24585;SDS011;12743;52.262;6.172;2023-06-22T03:00:43;26.85;;;18.50;;
24585;SDS011;12743;52.262;6.172;2023-06-22T03:03:09;26.15;;;18.17;;
24585;SDS011;12743;52.262;6.172;2023-06-22T03:05:36;25.90;;;18.63;;
24585;SDS011;12743;52.262;6.172;2023-06-22T03:08:03;29.80;;;18.95;;
24585;SDS011;12743;52.262;6.172;2023-06-22T03:10:33;28.42;;;19.05;;
24585;SDS011;12743;52.262;6.172;2023-06-22T03:13:00;26.92;;;20.33;;
24585;SDS011;12743;52.262;6.172;2023-06-22T03:15:27;28.83;;;20.65;;
24585;SDS011;12743;52.262;6.172;2023-06-22T03:17:56;29.87;;;21.63;;
24585;SDS011;12743;52.262;6.172;2023-06-22T03:20:30;29.38;;;21.30;;
24585;SDS011;12743;52.262;6.172;2023-06-22T03:23:01;29.80;;;22.05;;
24585;SDS011;12743;52.262;6.172;2023-06-22T03:25:34;30.73;;;22.00;;
24585;SDS011;12743;52.262;6.172;2023-06-22T03:28:02;32.45;;;22.45;;
24585;SDS011;12743;52.262;6.172;2023-06-22T03:30:28;32.67;;;22.57;;
24585;SDS011;12743;52.262;6.172;2023-06-22T03:32:56;34.05;;;23.80;;
24585;SDS011;12743;52.262;6.172;2023-06-22T03:35:22;34.28;;;23.27;;
24585;SDS011;12743;52.262;6.172;2023-06-22T03:37:49;33.88;;;23.92;;
24585;SDS011;12743;52.262;6.172;2023-06-22T03:40:16;32.35;;;23.85;;
24585;SDS011;12743;52.262;6.172;2023-06-22T03:42:43;34.27;;;23.07;;
24585;SDS011;12743;52.262;6.172;2023-06-22T03:45:10;36.67;;;24.95;;
24585;SDS011;12743;52.262;6.172;2023-06-22T03:47:40;38.10;;;24.90;;
24585;SDS011;12743;52.262;6.172;2023-06-22T03:50:08;36.75;;;26.00;;
24585;SDS011;12743;52.262;6.172;2023-06-22T03:52:36;32.42;;;23.77;;
24585;SDS011;12743;52.262;6.172;2023-06-22T03:55:03;33.27;;;24.27;;
24585;SDS011;12743;52.262;6.172;2023-06-22T03:57:33;34.35;;;24.83;;
24585;SDS011;12743;52.262;6.172;2023-06-22T04:00:00;38.00;;;25.10;;
24585;SDS011;12743;52.262;6.172;2023-06-22T04:02:37;35.35;;;25.35;;
24585;SDS011;12743;52.262;6.172;2023-06-22T04:05:04;36.25;;;26.00;;
24585;SDS011;12743;52.262;6.172;2023-06-22T04:07:32;41.67;;;28.13;;
24585;SDS011;12743;52.262;6.172;2023-06-22T04:09:58;39.38;;;28.58;;
24585;SDS011;12743;52.262;6.172;2023-06-22T04:12:26;37.10;;;26.90;;
24585;SDS011;12743;52.262;6.172;2023-06-22T04:14:52;38.20;;;27.33;;
24585;SDS011;12743;52.262;6.172;2023-06-22T04:17:19;41.60;;;28.23;;
24585;SDS011;12743;52.262;6.172;2023-06-22T04:19:46;38.40;;;28.37;;
24585;SDS011;12743;52.262;6.172;2023-06-22T04:22:12;39.70;;;28.17;;
24585;SDS011;12743;52.262;6.172;2023-06-22T04:24:39;41.10;;;28.90;;
24585;SDS011;12743;52.262;6.172;2023-06-22T04:27:06;38.42;;;28.63;;
24585;SDS011;12743;52.262;6.172;2023-06-22T04:32:26;42.57;;;29.17;;
24585;SDS011;12743;52.262;6.172;2023-06-22T04:34:53;43.78;;;29.13;;
24585;SDS011;12743;52.262;6.172;2023-06-22T04:37:20;41.67;;;30.60;;
24585;SDS011;12743;52.262;6.172;2023-06-22T04:39:49;43.75;;;29.00;;
24585;SDS011;12743;52.262;6.172;2023-06-22T04:42:16;44.42;;;31.23;;
24585;SDS011;12743;52.262;6.172;2023-06-22T04:44:43;40.17;;;28.83;;
24585;SDS011;12743;52.262;6.172;2023-06-22T04:47:09;39.10;;;28.10;;
24585;SDS011;12743;52.262;6.172;2023-06-22T04:49:36;42.50;;;29.80;;
24585;SDS011;12743;52.262;6.172;2023-06-22T04:52:04;42.67;;;29.25;;
24585;SDS011;12743;52.262;6.172;2023-06-22T04:54:32;53.97;;;33.90;;
24585;SDS011;12743;52.262;6.172;2023-06-22T04:57:03;41.47;;;30.37;;
24585;SDS011;12743;52.262;6.172;2023-06-22T04:59:31;44.17;;;30.77;;
24585;SDS011;12743;52.262;6.172;2023-06-22T05:01:58;40.10;;;28.55;;
24585;SDS011;12743;52.262;6.172;2023-06-22T05:04:29;38.13;;;28.40;;
24585;SDS011;12743;52.262;6.172;2023-06-22T05:07:01;43.13;;;30.33;;
24585;SDS011;12743;52.262;6.172;2023-06-22T05:09:29;41.43;;;28.43;;
24585;SDS011;12743;52.262;6.172;2023-06-22T05:11:56;40.20;;;30.25;;
24585;SDS011;12743;52.262;6.172;2023-06-22T05:14:23;47.97;;;31.35;;
24585;SDS011;12743;52.262;6.172;2023-06-22T05:16:50;42.88;;;30.00;;
24585;SDS011;12743;52.262;6.172;2023-06-22T05:19:18;42.42;;;30.35;;
24585;SDS011;12743;52.262;6.172;2023-06-22T05:21:45;43.33;;;31.67;;
24585;SDS011;12743;52.262;6.172;2023-06-22T05:24:12;38.85;;;28.58;;
24585;SDS011;12743;52.262;6.172;2023-06-22T05:26:45;43.80;;;30.98;;
24585;SDS011;12743;52.262;6.172;2023-06-22T05:29:19;38.83;;;29.10;;
24585;SDS011;12743;52.262;6.172;2023-06-22T05:31:46;41.28;;;30.40;;
24585;SDS011;12743;52.262;6.172;2023-06-22T05:34:12;41.33;;;29.07;;
24585;SDS011;12743;52.262;6.172;2023-06-22T05:36:39;48.28;;;28.60;;
24585;SDS011;12743;52.262;6.172;2023-06-22T05:39:13;37.15;;;27.27;;
24585;SDS011;12743;52.262;6.172;2023-06-22T05:41:41;35.53;;;25.80;;
24585;SDS011;12743;52.262;6.172;2023-06-22T05:44:09;36.70;;;26.77;;
24585;SDS011;12743;52.262;6.172;2023-06-22T05:46:36;34.73;;;26.70;;
24585;SDS011;12743;52.262;6.172;2023-06-22T05:49:02;35.38;;;25.95;;
24585;SDS011;12743;52.262;6.172;2023-06-22T05:51:29;33.58;;;25.70;;
24585;SDS011;12743;52.262;6.172;2023-06-22T05:53:56;30.58;;;22.10;;
24585;SDS011;12743;52.262;6.172;2023-06-22T05:56:23;36.42;;;24.48;;
24585;SDS011;12743;52.262;6.172;2023-06-22T05:58:49;31.77;;;24.37;;
24585;SDS011;12743;52.262;6.172;2023-06-22T06:01:16;28.40;;;22.83;;
24585;SDS011;12743;52.262;6.172;2023-06-22T06:03:43;34.63;;;22.58;;
24585;SDS011;12743;52.262;6.172;2023-06-22T06:06:10;31.90;;;23.25;;
24585;SDS011;12743;52.262;6.172;2023-06-22T06:08:40;30.88;;;22.88;;
24585;SDS011;12743;52.262;6.172;2023-06-22T06:11:07;32.83;;;22.47;;
24585;SDS011;12743;52.262;6.172;2023-06-22T06:13:34;27.83;;;19.90;;
24585;SDS011;12743;52.262;6.172;2023-06-22T06:16:00;24.77;;;18.90;;
24585;SDS011;12743;52.262;6.172;2023-06-22T06:18:27;26.42;;;19.20;;
24585;SDS011;12743;52.262;6.172;2023-06-22T06:20:54;23.38;;;17.05;;
24585;SDS011;12743;52.262;6.172;2023-06-22T06:23:21;23.23;;;18.00;;
24585;SDS011;12743;52.262;6.172;2023-06-22T06:25:47;23.38;;;17.00;;
24585;SDS011;12743;52.262;6.172;2023-06-22T06:28:14;23.73;;;15.85;;
24585;SDS011;12743;52.262;6.172;2023-06-22T06:30:41;21.08;;;15.93;;
24585;SDS011;12743;52.262;6.172;2023-06-22T06:33:08;21.63;;;16.63;;
24585;SDS011;12743;52.262;6.172;2023-06-22T06:35:35;24.27;;;16.07;;
24585;SDS011;12743;52.262;6.172;2023-06-22T06:38:02;22.02;;;15.85;;
24585;SDS011;12743;52.262;6.172;2023-06-22T06:40:29;19.35;;;14.35;;
24585;SDS011;12743;52.262;6.172;2023-06-22T06:42:56;21.92;;;14.35;;
24585;SDS011;12743;52.262;6.172;2023-06-22T06:45:24;18.95;;;12.90;;
24585;SDS011;12743;52.262;6.172;2023-06-22T06:47:54;17.50;;;12.80;;
24585;SDS011;12743;52.262;6.172;2023-06-22T06:50:21;15.70;;;10.70;;
24585;SDS011;12743;52.262;6.172;2023-06-22T06:52:50;18.55;;;12.70;;
24585;SDS011;12743;52.262;6.172;2023-06-22T06:55:17;15.52;;;11.85;;
24585;SDS011;12743;52.262;6.172;2023-06-22T06:57:45;16.98;;;10.48;;
24585;SDS011;12743;52.262;6.172;2023-06-22T07:00:14;15.57;;;11.23;;
24585;SDS011;12743;52.262;6.172;2023-06-22T07:02:44;16.58;;;10.85;;
24585;SDS011;12743;52.262;6.172;2023-06-22T07:05:14;22.75;;;10.32;;
24585;SDS011;12743;52.262;6.172;2023-06-22T07:07:40;12.38;;;8.23;;
24585;SDS011;12743;52.262;6.172;2023-06-22T07:10:10;13.07;;;9.43;;
24585;SDS011;12743;52.262;6.172;2023-06-22T07:12:37;12.63;;;9.40;;
24585;SDS011;12743;52.262;6.172;2023-06-22T07:15:07;12.70;;;9.35;;
24585;SDS011;12743;52.262;6.172;2023-06-22T07:17:35;12.80;;;8.98;;
24585;SDS011;12743;52.262;6.172;2023-06-22T07:20:03;11.68;;;8.48;;
24585;SDS011;12743;52.262;6.172;2023-06-22T07:22:43;12.88;;;9.07;;
24585;SDS011;12743;52.262;6.172;2023-06-22T07:25:13;13.27;;;8.13;;
24585;SDS011;12743;52.262;6.172;2023-06-22T07:27:57;10.90;;;7.93;;
24585;SDS011;12743;52.262;6.172;2023-06-22T07:30:25;11.55;;;8.35;;
24585;SDS011;12743;52.262;6.172;2023-06-22T07:32:51;12.02;;;8.15;;
24585;SDS011;12743;52.262;6.172;2023-06-22T07:35:18;11.18;;;7.22;;
24585;SDS011;12743;52.262;6.172;2023-06-22T07:37:45;12.03;;;8.07;;
24585;SDS011;12743;52.262;6.172;2023-06-22T07:40:12;10.57;;;8.68;;
24585;SDS011;12743;52.262;6.172;2023-06-22T07:42:39;11.20;;;7.18;;
24585;SDS011;12743;52.262;6.172;2023-06-22T07:45:06;10.02;;;7.28;;
24585;SDS011;12743;52.262;6.172;2023-06-22T07:47:34;11.27;;;7.60;;
24585;SDS011;12743;52.262;6.172;2023-06-22T07:50:04;11.90;;;7.90;;
24585;SDS011;12743;52.262;6.172;2023-06-22T07:52:31;11.95;;;7.35;;
24585;SDS011;12743;52.262;6.172;2023-06-22T07:54:58;10.90;;;7.68;;
24585;SDS011;12743;52.262;6.172;2023-06-22T07:57:26;10.43;;;6.78;;
24585;SDS011;12743;52.262;6.172;2023-06-22T07:59:59;15.25;;;8.85;;
24585;SDS011;12743;52.262;6.172;2023-06-22T08:02:37;11.23;;;8.33;;
24585;SDS011;12743;52.262;6.172;2023-06-22T08:05:05;10.07;;;7.68;;
24585;SDS011;12743;52.262;6.172;2023-06-22T08:07:53;9.88;;;8.07;;
24585;SDS011;12743;52.262;6.172;2023-06-22T08:10:21;10.55;;;7.38;;
24585;SDS011;12743;52.262;6.172;2023-06-22T08:12:48;9.35;;;7.22;;
24585;SDS011;12743;52.262;6.172;2023-06-22T08:15:15;11.33;;;6.80;;
24585;SDS011;12743;52.262;6.172;2023-06-22T08:17:41;9.82;;;7.20;;
24585;SDS011;12743;52.262;6.172;2023-06-22T08:20:08;10.77;;;7.50;;
24585;SDS011;12743;52.262;6.172;2023-06-22T08:22:36;9.05;;;6.68;;
24585;SDS011;12743;52.262;6.172;2023-06-22T08:25:03;9.07;;;5.80;;
24585;SDS011;12743;52.262;6.172;2023-06-22T08:27:30;11.93;;;7.47;;
24585;SDS011;12743;52.262;6.172;2023-06-22T08:29:58;9.38;;;6.53;;
24585;SDS011;12743;52.262;6.172;2023-06-22T08:32:29;13.10;;;7.70;;
24585;SDS011;12743;52.262;6.172;2023-06-22T08:34:56;10.85;;;6.97;;
24585;SDS011;12743;52.262;6.172;2023-06-22T08:37:23;10.15;;;7.00;;
24585;SDS011;12743;52.262;6.172;2023-06-22T08:39:58;15.03;;;8.10;;
24585;SDS011;12743;52.262;6.172;2023-06-22T08:42:26;11.55;;;7.45;;
24585;SDS011;12743;52.262;6.172;2023-06-22T08:44:55;13.27;;;7.47;;
24585;SDS011;12743;52.262;6.172;2023-06-22T08:47:22;12.07;;;6.25;;
24585;SDS011;12743;52.262;6.172;2023-06-22T08:49:49;11.38;;;7.80;;
24585;SDS011;12743;52.262;6.172;2023-06-22T08:52:17;12.10;;;7.73;;
24585;SDS011;12743;52.262;6.172;2023-06-22T08:54:44;13.70;;;7.32;;
24585;SDS011;12743;52.262;6.172;2023-06-22T08:57:10;12.52;;;7.25;;
24585;SDS011;12743;52.262;6.172;2023-06-22T08:59:37;12.73;;;7.80;;
24585;SDS011;12743;52.262;6.172;2023-06-22T09:02:04;11.60;;;6.90;;
24585;SDS011;12743;52.262;6.172;2023-06-22T09:04:30;12.07;;;6.90;;
24585;SDS011;12743;52.262;6.172;2023-06-22T09:07:01;14.00;;;6.85;;
24585;SDS011;12743;52.262;6.172;2023-06-22T09:09:29;15.10;;;7.80;;
24585;SDS011;12743;52.262;6.172;2023-06-22T09:11:55;9.02;;;7.20;;
24585;SDS011;12743;52.262;6.172;2023-06-22T09:14:22;13.27;;;7.60;;
24585;SDS011;12743;52.262;6.172;2023-06-22T09:16:49;11.10;;;7.63;;
24585;SDS011;12743;52.262;6.172;2023-06-22T09:19:15;12.00;;;7.30;;
24585;SDS011;12743;52.262;6.172;2023-06-22T09:21:42;12.75;;;7.47;;
24585;SDS011;12743;52.262;6.172;2023-06-22T09:24:09;10.35;;;7.20;;
24585;SDS011;12743;52.262;6.172;2023-06-22T09:26:35;9.23;;;6.70;;
24585;SDS011;12743;52.262;6.172;2023-06-22T09:29:04;12.60;;;7.37;;
24585;SDS011;12743;52.262;6.172;2023-06-22T09:31:31;11.02;;;7.60;;
24585;SDS011;12743;52.262;6.172;2023-06-22T09:33:58;12.73;;;7.65;;
24585;SDS011;12743;52.262;6.172;2023-06-22T09:36:26;9.60;;;7.07;;
24585;SDS011;12743;52.262;6.172;2023-06-22T09:38:52;11.68;;;7.50;;
24585;SDS011;12743;52.262;6.172;2023-06-22T09:41:24;21.97;;;8.00;;
24585;SDS011;12743;52.262;6.172;2023-06-22T09:43:51;10.25;;;7.00;;
24585;SDS011;12743;52.262;6.172;2023-06-22T09:46:21;10.70;;;6.43;;
24585;SDS011;12743;52.262;6.172;2023-06-22T09:48:51;10.98;;;6.90;;
24585;SDS011;12743;52.262;6.172;2023-06-22T09:51:18;11.25;;;7.15;;
24585;SDS011;12743;52.262;6.172;2023-06-22T09:53:46;9.97;;;6.03;;
24585;SDS011;12743;52.262;6.172;2023-06-22T09:56:13;17.35;;;8.52;;
24585;SDS011;12743;52.262;6.172;2023-06-22T09:58:44;20.45;;;8.38;;
24585;SDS011;12743;52.262;6.172;2023-06-22T10:01:13;12.57;;;8.18;;
24585;SDS011;12743;52.262;6.172;2023-06-22T10:03:42;11.98;;;7.82;;
24585;SDS011;12743;52.262;6.172;2023-06-22T10:06:09;12.57;;;8.07;;
24585;SDS011;12743;52.262;6.172;2023-06-22T10:08:36;12.63;;;7.15;;
24585;SDS011;12743;52.262;6.172;2023-06-22T10:11:03;11.13;;;7.03;;
24585;SDS011;12743;52.262;6.172;2023-06-22T10:13:30;10.85;;;7.70;;
24585;SDS011;12743;52.262;6.172;2023-06-22T10:15:57;14.00;;;7.53;;
24585;SDS011;12743;52.262;6.172;2023-06-22T10:18:24;12.03;;;7.10;;
24585;SDS011;12743;52.262;6.172;2023-06-22T10:20:50;11.13;;;6.70;;
24585;SDS011;12743;52.262;6.172;2023-06-22T10:23:19;10.13;;;7.65;;
24585;SDS011;12743;52.262;6.172;2023-06-22T10:25:46;12.95;;;7.07;;
24585;SDS011;12743;52.262;6.172;2023-06-22T10:28:13;11.35;;;8.32;;
24585;SDS011;12743;52.262;6.172;2023-06-22T10:30:40;18.90;;;7.53;;
24585;SDS011;12743;52.262;6.172;2023-06-22T10:33:11;11.95;;;8.35;;
24585;SDS011;12743;52.262;6.172;2023-06-22T10:35:38;12.25;;;8.07;;
24585;SDS011;12743;52.262;6.172;2023-06-22T10:38:05;12.70;;;8.05;;
24585;SDS011;12743;52.262;6.172;2023-06-22T10:40:33;12.57;;;7.93;;
24585;SDS011;12743;52.262;6.172;2023-06-22T10:42:59;11.30;;;7.10;;
24585;SDS011;12743;52.262;6.172;2023-06-22T10:45:27;10.80;;;6.88;;
24585;SDS011;12743;52.262;6.172;2023-06-22T10:47:55;10.88;;;7.47;;
24585;SDS011;12743;52.262;6.172;2023-06-22T10:50:22;12.15;;;7.63;;
24585;SDS011;12743;52.262;6.172;2023-06-22T10:52:51;11.18;;;7.65;;
24585;SDS011;12743;52.262;6.172;2023-06-22T10:55:19;12.07;;;7.80;;
24585;SDS011;12743;52.262;6.172;2023-06-22T10:57:45;12.52;;;8.10;;
24585;SDS011;12743;52.262;6.172;2023-06-22T11:00:14;11.85;;;8.18;;
24585;SDS011;12743;52.262;6.172;2023-06-22T11:02:42;10.23;;;7.20;;
24585;SDS011;12743;52.262;6.172;2023-06-22T11:05:10;14.10;;;8.50;;
24585;SDS011;12743;52.262;6.172;2023-06-22T11:07:37;14.87;;;8.07;;
24585;SDS011;12743;52.262;6.172;2023-06-22T11:10:11;12.75;;;6.68;;
24585;SDS011;12743;52.262;6.172;2023-06-22T11:12:38;12.38;;;8.50;;
24585;SDS011;12743;52.262;6.172;2023-06-22T11:15:05;17.23;;;7.47;;
24585;SDS011;12743;52.262;6.172;2023-06-22T11:17:32;18.65;;;8.18;;
24585;SDS011;12743;52.262;6.172;2023-06-22T11:19:59;15.63;;;8.10;;
24585;SDS011;12743;52.262;6.172;2023-06-22T11:22:26;13.90;;;7.88;;
24585;SDS011;12743;52.262;6.172;2023-06-22T11:24:53;12.85;;;7.43;;
24585;SDS011;12743;52.262;6.172;2023-06-22T11:27:20;15.02;;;8.52;;
24585;SDS011;12743;52.262;6.172;2023-06-22T11:29:47;16.02;;;7.57;;
24585;SDS011;12743;52.262;6.172;2023-06-22T11:32:13;11.77;;;8.10;;
24585;SDS011;12743;52.262;6.172;2023-06-22T11:34:40;13.60;;;7.55;;
24585;SDS011;12743;52.262;6.172;2023-06-22T11:37:07;15.02;;;8.32;;
24585;SDS011;12743;52.262;6.172;2023-06-22T11:39:34;12.95;;;8.30;;
24585;SDS011;12743;52.262;6.172;2023-06-22T11:42:13;10.57;;;6.85;;
24585;SDS011;12743;52.262;6.172;2023-06-22T11:44:39;10.60;;;8.20;;
24585;SDS011;12743;52.262;6.172;2023-06-22T11:47:06;12.82;;;8.82;;
24585;SDS011;12743;52.262;6.172;2023-06-22T11:49:33;14.90;;;6.68;;
24585;SDS011;12743;52.262;6.172;2023-06-22T11:52:00;11.57;;;8.05;;
24585;SDS011;12743;52.262;6.172;2023-06-22T11:54:27;14.73;;;8.80;;
24585;SDS011;12743;52.262;6.172;2023-06-22T11:56:54;15.53;;;8.57;;
24585;SDS011;12743;52.262;6.172;2023-06-22T11:59:20;11.23;;;6.65;;
24585;SDS011;12743;52.262;6.172;2023-06-22T12:01:48;14.02;;;7.63;;
24585;SDS011;12743;52.262;6.172;2023-06-22T12:04:17;10.57;;;7.25;;
24585;SDS011;12743;52.262;6.172;2023-06-22T12:06:44;11.20;;;7.15;;
24585;SDS011;12743;52.262;6.172;2023-06-22T12:09:11;9.67;;;6.17;;
24585;SDS011;12743;52.262;6.172;2023-06-22T12:11:40;9.20;;;5.90;;
24585;SDS011;12743;52.262;6.172;2023-06-22T12:14:06;10.35;;;6.10;;
24585;SDS011;12743;52.262;6.172;2023-06-22T12:16:33;16.25;;;7.55;;
24585;SDS011;12743;52.262;6.172;2023-06-22T12:19:00;13.80;;;6.60;;
24585;SDS011;12743;52.262;6.172;2023-06-22T12:21:28;10.10;;;5.77;;
24585;SDS011;12743;52.262;6.172;2023-06-22T12:23:55;8.55;;;5.72;;
24585;SDS011;12743;52.262;6.172;2023-06-22T12:26:22;11.25;;;6.70;;
24585;SDS011;12743;52.262;6.172;2023-06-22T12:28:48;16.50;;;7.05;;
24585;SDS011;12743;52.262;6.172;2023-06-22T12:31:16;13.75;;;7.57;;
24585;SDS011;12743;52.262;6.172;2023-06-22T12:33:43;10.47;;;6.93;;
24585;SDS011;12743;52.262;6.172;2023-06-22T12:36:10;13.10;;;7.22;;
24585;SDS011;12743;52.262;6.172;2023-06-22T12:38:36;9.90;;;6.65;;
24585;SDS011;12743;52.262;6.172;2023-06-22T12:41:03;10.65;;;6.85;;
24585;SDS011;12743;52.262;6.172;2023-06-22T12:43:30;8.95;;;5.25;;
24585;SDS011;12743;52.262;6.172;2023-06-22T12:45:56;9.53;;;5.83;;
24585;SDS011;12743;52.262;6.172;2023-06-22T12:48:25;9.32;;;6.03;;
24585;SDS011;12743;52.262;6.172;2023-06-22T12:50:53;12.20;;;7.18;;
24585;SDS011;12743;52.262;6.172;2023-06-22T12:53:21;9.27;;;5.32;;
24585;SDS011;12743;52.262;6.172;2023-06-22T12:55:49;14.10;;;6.82;;
24585;SDS011;12743;52.262;6.172;2023-06-22T12:58:16;10.20;;;6.60;;
24585;SDS011;12743;52.262;6.172;2023-06-22T13:00:43;8.40;;;5.32;;
24585;SDS011;12743;52.262;6.172;2023-06-22T13:03:10;9.18;;;6.13;;
24585;SDS011;12743;52.262;6.172;2023-06-22T13:05:37;9.98;;;6.97;;
24585;SDS011;12743;52.262;6.172;2023-06-22T13:08:04;8.40;;;5.80;;
24585;SDS011;12743;52.262;6.172;2023-06-22T13:10:31;14.50;;;6.93;;
24585;SDS011;12743;52.262;6.172;2023-06-22T13:12:58;11.20;;;7.93;;
24585;SDS011;12743;52.262;6.172;2023-06-22T13:15:30;14.85;;;8.65;;
24585;SDS011;12743;52.262;6.172;2023-06-22T13:17:57;12.48;;;8.82;;
24585;SDS011;12743;52.262;6.172;2023-06-22T13:20:24;10.77;;;8.35;;
24585;SDS011;12743;52.262;6.172;2023-06-22T13:22:51;11.87;;;7.93;;
24585;SDS011;12743;52.262;6.172;2023-06-22T13:25:18;13.45;;;9.23;;
24585;SDS011;12743;52.262;6.172;2023-06-22T13:27:47;12.20;;;9.50;;
24585;SDS011;12743;52.262;6.172;2023-06-22T13:30:14;16.77;;;10.68;;
24585;SDS011;12743;52.262;6.172;2023-06-22T13:32:41;15.05;;;10.00;;
24585;SDS011;12743;52.262;6.172;2023-06-22T13:35:09;13.03;;;9.57;;
24585;SDS011;12743;52.262;6.172;2023-06-22T13:37:36;15.05;;;10.63;;
24585;SDS011;12743;52.262;6.172;2023-06-22T13:40:04;13.40;;;10.13;;
24585;SDS011;12743;52.262;6.172;2023-06-22T13:42:34;17.42;;;12.05;;
24585;SDS011;12743;52.262;6.172;2023-06-22T13:45:01;13.05;;;9.82;;
24585;SDS011;12743;52.262;6.172;2023-06-22T13:47:29;22.63;;;11.97;;
24585;SDS011;12743;52.262;6.172;2023-06-22T13:49:57;15.02;;;10.65;;
24585;SDS011;12743;52.262;6.172;2023-06-22T13:52:24;17.35;;;10.70;;
24585;SDS011;12743;52.262;6.172;2023-06-22T13:54:51;13.95;;;10.82;;
24585;SDS011;12743;52.262;6.172;2023-06-22T13:57:18;17.08;;;11.77;;
24585;SDS011;12743;52.262;6.172;2023-06-22T13:59:45;13.70;;;11.60;;
24585;SDS011;12743;52.262;6.172;2023-06-22T14:02:12;14.40;;;11.45;;
24585;SDS011;12743;52.262;6.172;2023-06-22T14:04:38;16.23;;;11.35;;
24585;SDS011;12743;52.262;6.172;2023-06-22T14:07:05;16.60;;;13.18;;
24585;SDS011;12743;52.262;6.172;2023-06-22T14:09:32;14.82;;;11.70;;
24585;SDS011;12743;52.262;6.172;2023-06-22T14:12:02;15.73;;;13.00;;
24585;SDS011;12743;52.262;6.172;2023-06-22T14:14:30;17.38;;;13.98;;
24585;SDS011;12743;52.262;6.172;2023-06-22T14:16:57;16.15;;;13.55;;
24585;SDS011;12743;52.262;6.172;2023-06-22T14:19:23;16.58;;;13.95;;
24585;SDS011;12743;52.262;6.172;2023-06-22T14:21:50;18.95;;;14.63;;
24585;SDS011;12743;52.262;6.172;2023-06-22T14:24:17;18.30;;;14.80;;
24585;SDS011;12743;52.262;6.172;2023-06-22T14:26:44;16.48;;;13.23;;
24585;SDS011;12743;52.262;6.172;2023-06-22T14:29:10;18.23;;;15.82;;
24585;SDS011;12743;52.262;6.172;2023-06-22T14:31:37;18.20;;;14.57;;
24585;SDS011;12743;52.262;6.172;2023-06-22T14:34:03;18.70;;;16.20;;
24585;SDS011;12743;52.262;6.172;2023-06-22T14:36:32;19.07;;;15.80;;
24585;SDS011;12743;52.262;6.172;2023-06-22T14:38:58;19.85;;;15.90;;
24585;SDS011;12743;52.262;6.172;2023-06-22T14:41:25;17.25;;;13.45;;
24585;SDS011;12743;52.262;6.172;2023-06-22T14:43:52;17.27;;;14.13;;
24585;SDS011;12743;52.262;6.172;2023-06-22T14:46:19;17.60;;;14.75;;
24585;SDS011;12743;52.262;6.172;2023-06-22T14:48:46;20.43;;;16.00;;
24585;SDS011;12743;52.262;6.172;2023-06-22T14:51:13;17.77;;;14.55;;
24585;SDS011;12743;52.262;6.172;2023-06-22T14:53:46;16.45;;;14.13;;